sensor_id;sensor_type;location;lat;lon;timestamp;P1;durP1;ratioP1;P2;durP2;ratioP2
34767;SDS011;21755;43.608;1.236;2022-08-19T00:00:26;10.68;;;4.80;;
34767;SDS011;21755;43.608;1.236;2022-08-19T00:02:52;14.38;;;5.22;;
34767;SDS011;21755;43.608;1.236;2022-08-19T00:05:19;8.90;;;4.93;;
34767;SDS011;21755;43.608;1.236;2022-08-19T00:07:47;7.30;;;5.05;;
34767;SDS011;21755;43.608;1.236;2022-08-19T00:10:14;9.57;;;4.72;;
34767;SDS011;21755;43.608;1.236;2022-08-19T00:12:41;10.60;;;5.53;;
34767;SDS011;21755;43.608;1.236;2022-08-19T00:15:08;8.98;;;5.55;;
34767;SDS011;21755;43.608;1.236;2022-08-19T00:17:41;11.95;;;5.75;;
34767;SDS011;21755;43.608;1.236;2022-08-19T00:20:09;11.15;;;5.82;;
34767;SDS011;21755;43.608;1.236;2022-08-19T00:22:38;12.13;;;5.72;;
34767;SDS011;21755;43.608;1.236;2022-08-19T00:25:06;11.05;;;6.07;;
34767;SDS011;21755;43.608;1.236;2022-08-19T00:27:32;7.22;;;5.10;;
34767;SDS011;21755;43.608;1.236;2022-08-19T00:29:59;8.82;;;5.32;;
34767;SDS011;21755;43.608;1.236;2022-08-19T00:32:26;15.10;;;5.85;;
34767;SDS011;21755;43.608;1.236;2022-08-19T00:34:52;9.07;;;5.03;;
34767;SDS011;21755;43.608;1.236;2022-08-19T00:37:19;9.73;;;5.90;;
34767;SDS011;21755;43.608;1.236;2022-08-19T00:39:48;20.17;;;5.13;;
34767;SDS011;21755;43.608;1.236;2022-08-19T00:42:16;16.40;;;6.70;;
34767;SDS011;21755;43.608;1.236;2022-08-19T00:44:42;9.25;;;5.40;;
34767;SDS011;21755;43.608;1.236;2022-08-19T00:47:08;15.32;;;6.75;;
34767;SDS011;21755;43.608;1.236;2022-08-19T00:49:52;9.07;;;5.65;;
34767;SDS011;21755;43.608;1.236;2022-08-19T00:52:22;13.15;;;6.38;;
34767;SDS011;21755;43.608;1.236;2022-08-19T00:54:54;14.10;;;6.22;;
34767;SDS011;21755;43.608;1.236;2022-08-19T00:57:23;13.18;;;6.07;;
34767;SDS011;21755;43.608;1.236;2022-08-19T00:59:59;13.93;;;6.65;;
34767;SDS011;21755;43.608;1.236;2022-08-19T01:02:27;15.05;;;6.00;;
34767;SDS011;21755;43.608;1.236;2022-08-19T01:04:54;11.18;;;6.38;;
34767;SDS011;21755;43.608;1.236;2022-08-19T01:07:20;15.60;;;6.93;;
34767;SDS011;21755;43.608;1.236;2022-08-19T01:09:46;10.50;;;5.53;;
34767;SDS011;21755;43.608;1.236;2022-08-19T01:12:13;10.00;;;5.80;;
34767;SDS011;21755;43.608;1.236;2022-08-19T01:14:40;10.95;;;5.38;;
34767;SDS011;21755;43.608;1.236;2022-08-19T01:17:07;12.40;;;5.80;;
34767;SDS011;21755;43.608;1.236;2022-08-19T01:19:39;12.05;;;6.13;;
34767;SDS011;21755;43.608;1.236;2022-08-19T01:22:19;15.25;;;5.88;;
34767;SDS011;21755;43.608;1.236;2022-08-19T01:24:53;11.07;;;5.88;;
34767;SDS011;21755;43.608;1.236;2022-08-19T01:27:19;9.35;;;5.55;;
34767;SDS011;21755;43.608;1.236;2022-08-19T01:29:45;10.40;;;6.25;;
34767;SDS011;21755;43.608;1.236;2022-08-19T01:32:12;16.67;;;6.60;;
34767;SDS011;21755;43.608;1.236;2022-08-19T01:34:39;11.57;;;5.72;;
34767;SDS011;21755;43.608;1.236;2022-08-19T01:37:10;14.63;;;5.40;;
34767;SDS011;21755;43.608;1.236;2022-08-19T01:39:38;14.57;;;6.10;;
34767;SDS011;21755;43.608;1.236;2022-08-19T01:42:05;14.48;;;5.55;;
34767;SDS011;21755;43.608;1.236;2022-08-19T01:44:34;11.27;;;5.75;;
34767;SDS011;21755;43.608;1.236;2022-08-19T01:47:01;10.98;;;6.10;;
34767;SDS011;21755;43.608;1.236;2022-08-19T01:49:28;17.33;;;6.30;;
34767;SDS011;21755;43.608;1.236;2022-08-19T01:51:55;11.90;;;5.13;;
34767;SDS011;21755;43.608;1.236;2022-08-19T01:54:22;12.18;;;6.18;;
34767;SDS011;21755;43.608;1.236;2022-08-19T01:56:50;13.25;;;5.60;;
34767;SDS011;21755;43.608;1.236;2022-08-19T01:59:19;9.75;;;5.50;;
34767;SDS011;21755;43.608;1.236;2022-08-19T02:01:48;12.93;;;5.57;;
34767;SDS011;21755;43.608;1.236;2022-08-19T02:04:14;12.20;;;5.90;;
34767;SDS011;21755;43.608;1.236;2022-08-19T02:06:40;11.93;;;6.40;;
34767;SDS011;21755;43.608;1.236;2022-08-19T02:09:06;11.80;;;5.88;;
34767;SDS011;21755;43.608;1.236;2022-08-19T02:11:34;12.05;;;5.53;;
34767;SDS011;21755;43.608;1.236;2022-08-19T02:14:02;13.20;;;5.53;;
34767;SDS011;21755;43.608;1.236;2022-08-19T02:16:31;14.43;;;6.05;;
34767;SDS011;21755;43.608;1.236;2022-08-19T02:18:57;14.13;;;5.93;;
34767;SDS011;21755;43.608;1.236;2022-08-19T02:21:27;14.90;;;5.75;;
34767;SDS011;21755;43.608;1.236;2022-08-19T02:23:54;10.18;;;5.90;;
34767;SDS011;21755;43.608;1.236;2022-08-19T02:26:21;13.18;;;5.95;;
34767;SDS011;21755;43.608;1.236;2022-08-19T02:28:48;14.63;;;5.75;;
34767;SDS011;21755;43.608;1.236;2022-08-19T02:31:17;12.00;;;5.68;;
34767;SDS011;21755;43.608;1.236;2022-08-19T02:33:45;14.52;;;6.55;;
34767;SDS011;21755;43.608;1.236;2022-08-19T02:36:12;14.05;;;5.70;;
34767;SDS011;21755;43.608;1.236;2022-08-19T02:38:39;13.50;;;5.60;;
34767;SDS011;21755;43.608;1.236;2022-08-19T02:41:09;9.02;;;5.00;;
34767;SDS011;21755;43.608;1.236;2022-08-19T02:43:39;11.05;;;5.55;;
34767;SDS011;21755;43.608;1.236;2022-08-19T02:46:27;9.00;;;5.32;;
34767;SDS011;21755;43.608;1.236;2022-08-19T02:48:55;13.50;;;5.60;;
34767;SDS011;21755;43.608;1.236;2022-08-19T02:51:25;9.05;;;5.63;;
34767;SDS011;21755;43.608;1.236;2022-08-19T02:53:59;16.50;;;6.82;;
34767;SDS011;21755;43.608;1.236;2022-08-19T02:56:25;10.10;;;4.85;;
34767;SDS011;21755;43.608;1.236;2022-08-19T02:58:53;11.68;;;5.80;;
34767;SDS011;21755;43.608;1.236;2022-08-19T03:01:23;10.68;;;5.10;;
34767;SDS011;21755;43.608;1.236;2022-08-19T03:03:50;10.82;;;4.85;;
34767;SDS011;21755;43.608;1.236;2022-08-19T03:06:18;8.20;;;4.93;;
34767;SDS011;21755;43.608;1.236;2022-08-19T03:08:45;12.40;;;5.32;;
34767;SDS011;21755;43.608;1.236;2022-08-19T03:11:16;10.10;;;4.65;;
34767;SDS011;21755;43.608;1.236;2022-08-19T03:13:45;12.15;;;5.82;;
34767;SDS011;21755;43.608;1.236;2022-08-19T03:16:11;11.65;;;4.78;;
34767;SDS011;21755;43.608;1.236;2022-08-19T03:18:38;12.68;;;5.00;;
34767;SDS011;21755;43.608;1.236;2022-08-19T03:21:04;17.92;;;5.60;;
34767;SDS011;21755;43.608;1.236;2022-08-19T03:23:31;10.85;;;4.90;;
34767;SDS011;21755;43.608;1.236;2022-08-19T03:25:57;13.57;;;5.47;;
34767;SDS011;21755;43.608;1.236;2022-08-19T03:28:23;12.38;;;4.95;;
34767;SDS011;21755;43.608;1.236;2022-08-19T03:31:00;12.90;;;4.78;;
34767;SDS011;21755;43.608;1.236;2022-08-19T03:33:30;13.32;;;4.55;;
34767;SDS011;21755;43.608;1.236;2022-08-19T03:38:42;9.73;;;5.07;;
34767;SDS011;21755;43.608;1.236;2022-08-19T03:43:40;8.95;;;4.47;;
34767;SDS011;21755;43.608;1.236;2022-08-19T03:46:08;7.88;;;5.05;;
34767;SDS011;21755;43.608;1.236;2022-08-19T03:48:39;10.50;;;4.97;;
34767;SDS011;21755;43.608;1.236;2022-08-19T03:51:06;19.75;;;5.32;;
34767;SDS011;21755;43.608;1.236;2022-08-19T03:53:40;9.02;;;5.00;;
34767;SDS011;21755;43.608;1.236;2022-08-19T03:56:07;12.40;;;4.95;;
34767;SDS011;21755;43.608;1.236;2022-08-19T03:58:34;8.80;;;5.00;;
34767;SDS011;21755;43.608;1.236;2022-08-19T04:01:06;12.85;;;5.07;;
34767;SDS011;21755;43.608;1.236;2022-08-19T04:03:33;11.82;;;5.40;;
34767;SDS011;21755;43.608;1.236;2022-08-19T04:08:41;13.02;;;5.05;;
34767;SDS011;21755;43.608;1.236;2022-08-19T04:11:09;14.45;;;4.72;;
34767;SDS011;21755;43.608;1.236;2022-08-19T04:13:37;10.63;;;4.70;;
34767;SDS011;21755;43.608;1.236;2022-08-19T04:16:03;15.20;;;5.82;;
34767;SDS011;21755;43.608;1.236;2022-08-19T04:18:31;14.40;;;4.85;;
34767;SDS011;21755;43.608;1.236;2022-08-19T04:20:58;10.73;;;4.90;;
34767;SDS011;21755;43.608;1.236;2022-08-19T04:23:25;13.48;;;5.43;;
34767;SDS011;21755;43.608;1.236;2022-08-19T04:25:53;13.55;;;5.25;;
34767;SDS011;21755;43.608;1.236;2022-08-19T04:28:19;11.02;;;4.57;;
34767;SDS011;21755;43.608;1.236;2022-08-19T04:30:49;11.23;;;4.97;;
34767;SDS011;21755;43.608;1.236;2022-08-19T04:33:18;10.13;;;4.88;;
34767;SDS011;21755;43.608;1.236;2022-08-19T04:35:47;12.10;;;5.13;;
34767;SDS011;21755;43.608;1.236;2022-08-19T04:38:14;13.75;;;5.03;;
34767;SDS011;21755;43.608;1.236;2022-08-19T04:40:43;8.98;;;4.90;;
34767;SDS011;21755;43.608;1.236;2022-08-19T04:43:29;12.55;;;4.53;;
34767;SDS011;21755;43.608;1.236;2022-08-19T04:45:55;11.32;;;5.10;;
34767;SDS011;21755;43.608;1.236;2022-08-19T04:48:22;6.15;;;4.80;;
34767;SDS011;21755;43.608;1.236;2022-08-19T04:50:52;16.10;;;5.13;;
34767;SDS011;21755;43.608;1.236;2022-08-19T04:53:23;12.45;;;5.30;;
34767;SDS011;21755;43.608;1.236;2022-08-19T04:55:54;12.23;;;5.10;;
34767;SDS011;21755;43.608;1.236;2022-08-19T04:58:21;11.00;;;5.35;;
34767;SDS011;21755;43.608;1.236;2022-08-19T05:00:48;20.08;;;5.53;;
34767;SDS011;21755;43.608;1.236;2022-08-19T05:03:14;11.70;;;5.45;;
34767;SDS011;21755;43.608;1.236;2022-08-19T05:05:42;13.95;;;5.55;;
34767;SDS011;21755;43.608;1.236;2022-08-19T05:08:10;10.18;;;5.13;;
34767;SDS011;21755;43.608;1.236;2022-08-19T05:10:37;12.55;;;4.82;;
34767;SDS011;21755;43.608;1.236;2022-08-19T05:13:04;10.65;;;4.85;;
34767;SDS011;21755;43.608;1.236;2022-08-19T05:15:30;10.65;;;4.65;;
34767;SDS011;21755;43.608;1.236;2022-08-19T05:17:57;10.82;;;5.20;;
34767;SDS011;21755;43.608;1.236;2022-08-19T05:20:41;9.25;;;4.57;;
34767;SDS011;21755;43.608;1.236;2022-08-19T05:23:25;10.32;;;5.28;;
34767;SDS011;21755;43.608;1.236;2022-08-19T05:25:52;12.00;;;5.15;;
34767;SDS011;21755;43.608;1.236;2022-08-19T05:28:19;6.85;;;4.18;;
34767;SDS011;21755;43.608;1.236;2022-08-19T05:30:45;6.53;;;4.30;;
34767;SDS011;21755;43.608;1.236;2022-08-19T05:33:13;15.52;;;4.78;;
34767;SDS011;21755;43.608;1.236;2022-08-19T05:35:39;10.90;;;4.50;;
34767;SDS011;21755;43.608;1.236;2022-08-19T05:38:07;14.68;;;4.65;;
34767;SDS011;21755;43.608;1.236;2022-08-19T05:40:37;10.25;;;4.35;;
34767;SDS011;21755;43.608;1.236;2022-08-19T05:43:04;8.05;;;4.47;;
34767;SDS011;21755;43.608;1.236;2022-08-19T05:45:32;15.00;;;4.85;;
34767;SDS011;21755;43.608;1.236;2022-08-19T05:48:03;9.30;;;4.60;;
34767;SDS011;21755;43.608;1.236;2022-08-19T05:50:29;11.57;;;4.45;;
34767;SDS011;21755;43.608;1.236;2022-08-19T05:52:55;10.95;;;4.45;;
34767;SDS011;21755;43.608;1.236;2022-08-19T05:55:21;11.77;;;4.60;;
34767;SDS011;21755;43.608;1.236;2022-08-19T05:57:48;10.85;;;4.60;;
34767;SDS011;21755;43.608;1.236;2022-08-19T06:00:15;13.65;;;4.68;;
34767;SDS011;21755;43.608;1.236;2022-08-19T06:02:41;11.10;;;4.50;;
34767;SDS011;21755;43.608;1.236;2022-08-19T06:05:07;10.20;;;5.28;;
34767;SDS011;21755;43.608;1.236;2022-08-19T06:07:34;9.02;;;4.88;;
34767;SDS011;21755;43.608;1.236;2022-08-19T06:10:02;11.75;;;4.93;;
34767;SDS011;21755;43.608;1.236;2022-08-19T06:12:36;13.00;;;4.95;;
34767;SDS011;21755;43.608;1.236;2022-08-19T06:15:04;12.07;;;5.03;;
34767;SDS011;21755;43.608;1.236;2022-08-19T06:17:35;10.18;;;4.28;;
34767;SDS011;21755;43.608;1.236;2022-08-19T06:20:06;11.73;;;5.10;;
34767;SDS011;21755;43.608;1.236;2022-08-19T06:22:41;15.43;;;5.22;;
34767;SDS011;21755;43.608;1.236;2022-08-19T06:25:09;16.83;;;4.90;;
34767;SDS011;21755;43.608;1.236;2022-08-19T06:27:35;14.35;;;5.15;;
34767;SDS011;21755;43.608;1.236;2022-08-19T06:30:03;9.20;;;4.70;;
34767;SDS011;21755;43.608;1.236;2022-08-19T06:32:29;10.93;;;4.28;;
34767;SDS011;21755;43.608;1.236;2022-08-19T06:34:55;12.98;;;4.50;;
34767;SDS011;21755;43.608;1.236;2022-08-19T06:37:21;13.20;;;4.72;;
34767;SDS011;21755;43.608;1.236;2022-08-19T06:39:48;10.73;;;5.13;;
34767;SDS011;21755;43.608;1.236;2022-08-19T06:42:15;11.57;;;4.65;;
34767;SDS011;21755;43.608;1.236;2022-08-19T06:44:44;13.73;;;5.25;;
34767;SDS011;21755;43.608;1.236;2022-08-19T06:47:12;12.18;;;4.82;;
34767;SDS011;21755;43.608;1.236;2022-08-19T06:49:41;14.80;;;4.97;;
34767;SDS011;21755;43.608;1.236;2022-08-19T06:52:07;18.02;;;4.95;;
34767;SDS011;21755;43.608;1.236;2022-08-19T06:54:37;12.18;;;4.53;;
34767;SDS011;21755;43.608;1.236;2022-08-19T06:57:04;15.13;;;5.32;;
34767;SDS011;21755;43.608;1.236;2022-08-19T06:59:32;8.25;;;4.30;;
34767;SDS011;21755;43.608;1.236;2022-08-19T07:01:59;17.20;;;4.85;;
34767;SDS011;21755;43.608;1.236;2022-08-19T07:04:30;15.93;;;5.30;;
34767;SDS011;21755;43.608;1.236;2022-08-19T07:07:11;12.30;;;5.13;;
34767;SDS011;21755;43.608;1.236;2022-08-19T07:09:48;12.05;;;4.70;;
34767;SDS011;21755;43.608;1.236;2022-08-19T07:12:15;11.43;;;5.13;;
34767;SDS011;21755;43.608;1.236;2022-08-19T07:14:41;16.05;;;3.90;;
34767;SDS011;21755;43.608;1.236;2022-08-19T07:17:09;11.43;;;4.65;;
34767;SDS011;21755;43.608;1.236;2022-08-19T07:19:37;12.60;;;4.53;;
34767;SDS011;21755;43.608;1.236;2022-08-19T07:22:05;13.25;;;4.93;;
34767;SDS011;21755;43.608;1.236;2022-08-19T07:24:34;8.88;;;4.15;;
34767;SDS011;21755;43.608;1.236;2022-08-19T07:27:06;10.77;;;4.88;;
34767;SDS011;21755;43.608;1.236;2022-08-19T07:29:34;12.23;;;4.68;;
34767;SDS011;21755;43.608;1.236;2022-08-19T07:32:01;14.05;;;4.50;;
34767;SDS011;21755;43.608;1.236;2022-08-19T07:34:36;15.45;;;4.63;;
34767;SDS011;21755;43.608;1.236;2022-08-19T07:37:13;10.52;;;4.13;;
34767;SDS011;21755;43.608;1.236;2022-08-19T07:39:41;13.43;;;4.50;;
34767;SDS011;21755;43.608;1.236;2022-08-19T07:42:08;6.22;;;3.90;;
34767;SDS011;21755;43.608;1.236;2022-08-19T07:44:36;12.68;;;4.35;;
34767;SDS011;21755;43.608;1.236;2022-08-19T07:47:03;7.20;;;3.28;;
34767;SDS011;21755;43.608;1.236;2022-08-19T07:49:29;13.52;;;4.70;;
34767;SDS011;21755;43.608;1.236;2022-08-19T07:52:06;8.93;;;4.07;;
34767;SDS011;21755;43.608;1.236;2022-08-19T07:54:42;11.25;;;4.65;;
34767;SDS011;21755;43.608;1.236;2022-08-19T07:57:08;8.65;;;4.65;;
34767;SDS011;21755;43.608;1.236;2022-08-19T07:59:34;12.02;;;4.78;;
34767;SDS011;21755;43.608;1.236;2022-08-19T08:02:01;16.13;;;4.50;;
34767;SDS011;21755;43.608;1.236;2022-08-19T08:04:28;8.38;;;4.20;;
34767;SDS011;21755;43.608;1.236;2022-08-19T08:07:14;11.60;;;4.85;;
34767;SDS011;21755;43.608;1.236;2022-08-19T08:10:00;7.25;;;3.50;;
34767;SDS011;21755;43.608;1.236;2022-08-19T08:12:27;9.52;;;4.03;;
34767;SDS011;21755;43.608;1.236;2022-08-19T08:15:01;15.07;;;4.40;;
34767;SDS011;21755;43.608;1.236;2022-08-19T08:17:30;13.45;;;4.05;;
34767;SDS011;21755;43.608;1.236;2022-08-19T08:19:57;8.30;;;3.88;;
34767;SDS011;21755;43.608;1.236;2022-08-19T08:22:23;13.82;;;4.10;;
34767;SDS011;21755;43.608;1.236;2022-08-19T08:25:10;8.65;;;3.83;;
34767;SDS011;21755;43.608;1.236;2022-08-19T08:27:39;8.52;;;3.45;;
34767;SDS011;21755;43.608;1.236;2022-08-19T08:30:07;11.55;;;4.07;;
34767;SDS011;21755;43.608;1.236;2022-08-19T08:32:36;7.10;;;3.13;;
34767;SDS011;21755;43.608;1.236;2022-08-19T08:35:04;11.48;;;3.17;;
34767;SDS011;21755;43.608;1.236;2022-08-19T08:37:32;7.43;;;3.78;;
34767;SDS011;21755;43.608;1.236;2022-08-19T08:39:58;8.75;;;3.67;;
34767;SDS011;21755;43.608;1.236;2022-08-19T08:42:28;6.45;;;3.65;;
34767;SDS011;21755;43.608;1.236;2022-08-19T08:44:59;4.97;;;3.08;;
34767;SDS011;21755;43.608;1.236;2022-08-19T08:47:31;6.32;;;3.90;;
34767;SDS011;21755;43.608;1.236;2022-08-19T08:52:51;11.00;;;4.07;;
34767;SDS011;21755;43.608;1.236;2022-08-19T08:55:22;10.13;;;3.33;;
34767;SDS011;21755;43.608;1.236;2022-08-19T08:58:34;6.53;;;3.03;;
34767;SDS011;21755;43.608;1.236;2022-08-19T09:00:51;10.18;;;3.58;;
34767;SDS011;21755;43.608;1.236;2022-08-19T09:03:21;9.32;;;3.75;;
34767;SDS011;21755;43.608;1.236;2022-08-19T09:06:00;7.88;;;3.20;;
34767;SDS011;21755;43.608;1.236;2022-08-19T09:11:19;6.78;;;3.38;;
34767;SDS011;21755;43.608;1.236;2022-08-19T09:14:26;6.90;;;3.75;;
34767;SDS011;21755;43.608;1.236;2022-08-19T09:16:58;10.57;;;3.67;;
34767;SDS011;21755;43.608;1.236;2022-08-19T09:19:27;9.90;;;4.28;;
34767;SDS011;21755;43.608;1.236;2022-08-19T09:21:53;8.70;;;3.63;;
34767;SDS011;21755;43.608;1.236;2022-08-19T09:24:19;8.15;;;3.60;;
34767;SDS011;21755;43.608;1.236;2022-08-19T09:26:45;9.13;;;4.10;;
34767;SDS011;21755;43.608;1.236;2022-08-19T09:29:11;6.47;;;3.47;;
34767;SDS011;21755;43.608;1.236;2022-08-19T09:31:38;8.57;;;3.60;;
34767;SDS011;21755;43.608;1.236;2022-08-19T09:34:04;5.78;;;3.75;;
34767;SDS011;21755;43.608;1.236;2022-08-19T09:36:31;8.23;;;3.97;;
34767;SDS011;21755;43.608;1.236;2022-08-19T09:38:58;8.38;;;3.60;;
34767;SDS011;21755;43.608;1.236;2022-08-19T09:41:27;10.48;;;3.90;;
34767;SDS011;21755;43.608;1.236;2022-08-19T09:43:54;5.20;;;3.05;;
34767;SDS011;21755;43.608;1.236;2022-08-19T09:46:23;8.68;;;4.03;;
34767;SDS011;21755;43.608;1.236;2022-08-19T09:48:51;9.77;;;4.07;;
34767;SDS011;21755;43.608;1.236;2022-08-19T09:51:21;9.43;;;4.35;;
34767;SDS011;21755;43.608;1.236;2022-08-19T09:53:49;12.48;;;4.10;;
34767;SDS011;21755;43.608;1.236;2022-08-19T09:56:19;6.20;;;4.07;;
34767;SDS011;21755;43.608;1.236;2022-08-19T09:58:46;9.00;;;4.55;;
34767;SDS011;21755;43.608;1.236;2022-08-19T10:01:19;14.45;;;4.32;;
34767;SDS011;21755;43.608;1.236;2022-08-19T10:03:51;10.75;;;4.30;;
34767;SDS011;21755;43.608;1.236;2022-08-19T10:06:20;9.95;;;3.53;;
34767;SDS011;21755;43.608;1.236;2022-08-19T10:08:51;8.23;;;3.80;;
34767;SDS011;21755;43.608;1.236;2022-08-19T10:11:18;10.85;;;4.35;;
34767;SDS011;21755;43.608;1.236;2022-08-19T10:13:45;9.40;;;4.18;;
34767;SDS011;21755;43.608;1.236;2022-08-19T10:16:13;10.25;;;3.95;;
34767;SDS011;21755;43.608;1.236;2022-08-19T10:18:41;8.30;;;4.40;;
34767;SDS011;21755;43.608;1.236;2022-08-19T10:21:19;7.40;;;3.53;;
34767;SDS011;21755;43.608;1.236;2022-08-19T10:23:51;7.70;;;3.72;;
34767;SDS011;21755;43.608;1.236;2022-08-19T10:26:21;5.55;;;3.25;;
34767;SDS011;21755;43.608;1.236;2022-08-19T10:28:49;10.35;;;3.75;;
34767;SDS011;21755;43.608;1.236;2022-08-19T10:31:17;12.88;;;4.15;;
34767;SDS011;21755;43.608;1.236;2022-08-19T10:33:45;6.20;;;3.35;;
34767;SDS011;21755;43.608;1.236;2022-08-19T10:36:15;11.68;;;4.55;;
34767;SDS011;21755;43.608;1.236;2022-08-19T10:38:49;9.55;;;4.15;;
34767;SDS011;21755;43.608;1.236;2022-08-19T10:41:18;6.93;;;3.70;;
34767;SDS011;21755;43.608;1.236;2022-08-19T10:43:51;8.45;;;3.88;;
34767;SDS011;21755;43.608;1.236;2022-08-19T10:46:24;7.70;;;3.97;;
34767;SDS011;21755;43.608;1.236;2022-08-19T10:48:51;13.85;;;4.13;;
34767;SDS011;21755;43.608;1.236;2022-08-19T10:51:18;10.40;;;3.40;;
34767;SDS011;21755;43.608;1.236;2022-08-19T10:54:04;10.20;;;3.60;;
34767;SDS011;21755;43.608;1.236;2022-08-19T10:56:31;10.30;;;3.33;;
34767;SDS011;21755;43.608;1.236;2022-08-19T10:59:27;7.00;;;3.60;;
34767;SDS011;21755;43.608;1.236;2022-08-19T11:02:04;8.35;;;3.60;;
34767;SDS011;21755;43.608;1.236;2022-08-19T11:04:35;6.13;;;3.20;;
34767;SDS011;21755;43.608;1.236;2022-08-19T11:07:02;6.40;;;2.63;;
34767;SDS011;21755;43.608;1.236;2022-08-19T11:09:29;4.93;;;3.17;;
34767;SDS011;21755;43.608;1.236;2022-08-19T11:11:56;5.57;;;3.72;;
34767;SDS011;21755;43.608;1.236;2022-08-19T11:14:23;7.55;;;3.28;;
34767;SDS011;21755;43.608;1.236;2022-08-19T11:16:51;4.72;;;3.45;;
34767;SDS011;21755;43.608;1.236;2022-08-19T11:19:21;6.60;;;3.28;;
34767;SDS011;21755;43.608;1.236;2022-08-19T11:21:48;7.07;;;3.38;;
34767;SDS011;21755;43.608;1.236;2022-08-19T11:24:17;6.43;;;3.20;;
34767;SDS011;21755;43.608;1.236;2022-08-19T11:26:45;7.43;;;2.92;;
34767;SDS011;21755;43.608;1.236;2022-08-19T11:29:17;4.25;;;3.17;;
34767;SDS011;21755;43.608;1.236;2022-08-19T11:31:45;4.53;;;3.20;;
34767;SDS011;21755;43.608;1.236;2022-08-19T11:34:15;4.90;;;2.78;;
34767;SDS011;21755;43.608;1.236;2022-08-19T11:36:44;5.82;;;2.63;;
34767;SDS011;21755;43.608;1.236;2022-08-19T11:39:13;7.90;;;3.00;;
34767;SDS011;21755;43.608;1.236;2022-08-19T11:41:42;4.88;;;2.38;;
34767;SDS011;21755;43.608;1.236;2022-08-19T11:44:08;5.15;;;2.55;;
34767;SDS011;21755;43.608;1.236;2022-08-19T11:46:35;9.23;;;3.15;;
34767;SDS011;21755;43.608;1.236;2022-08-19T11:49:02;4.60;;;2.97;;
34767;SDS011;21755;43.608;1.236;2022-08-19T11:51:30;4.40;;;2.40;;
34767;SDS011;21755;43.608;1.236;2022-08-19T11:53:57;3.65;;;2.80;;
34767;SDS011;21755;43.608;1.236;2022-08-19T11:56:24;7.20;;;2.80;;
34767;SDS011;21755;43.608;1.236;2022-08-19T11:58:52;6.72;;;2.83;;
34767;SDS011;21755;43.608;1.236;2022-08-19T12:01:20;4.30;;;2.75;;
34767;SDS011;21755;43.608;1.236;2022-08-19T12:03:49;3.25;;;2.67;;
34767;SDS011;21755;43.608;1.236;2022-08-19T12:06:21;10.18;;;2.75;;
34767;SDS011;21755;43.608;1.236;2022-08-19T12:08:51;7.40;;;2.75;;
34767;SDS011;21755;43.608;1.236;2022-08-19T12:11:18;4.57;;;2.38;;
34767;SDS011;21755;43.608;1.236;2022-08-19T12:13:45;4.07;;;2.55;;
34767;SDS011;21755;43.608;1.236;2022-08-19T12:16:15;5.40;;;2.88;;
34767;SDS011;21755;43.608;1.236;2022-08-19T12:18:44;5.53;;;2.70;;
34767;SDS011;21755;43.608;1.236;2022-08-19T12:21:12;3.50;;;2.22;;
34767;SDS011;21755;43.608;1.236;2022-08-19T12:23:39;5.35;;;3.13;;
34767;SDS011;21755;43.608;1.236;2022-08-19T12:26:08;5.78;;;2.83;;
34767;SDS011;21755;43.608;1.236;2022-08-19T12:28:35;4.72;;;3.05;;
34767;SDS011;21755;43.608;1.236;2022-08-19T12:31:03;2.58;;;2.38;;
34767;SDS011;21755;43.608;1.236;2022-08-19T12:33:29;4.45;;;2.30;;
34767;SDS011;21755;43.608;1.236;2022-08-19T12:36:00;7.25;;;2.80;;
34767;SDS011;21755;43.608;1.236;2022-08-19T12:38:29;5.33;;;2.63;;
34767;SDS011;21755;43.608;1.236;2022-08-19T12:40:57;3.60;;;2.55;;
34767;SDS011;21755;43.608;1.236;2022-08-19T12:43:24;5.13;;;2.75;;
34767;SDS011;21755;43.608;1.236;2022-08-19T12:45:50;3.63;;;2.20;;
34767;SDS011;21755;43.608;1.236;2022-08-19T12:48:17;6.90;;;2.50;;
34767;SDS011;21755;43.608;1.236;2022-08-19T12:50:44;11.35;;;2.80;;
34767;SDS011;21755;43.608;1.236;2022-08-19T12:53:12;7.50;;;2.97;;
34767;SDS011;21755;43.608;1.236;2022-08-19T12:55:40;7.85;;;2.83;;
34767;SDS011;21755;43.608;1.236;2022-08-19T12:58:08;5.50;;;2.83;;
34767;SDS011;21755;43.608;1.236;2022-08-19T13:00:35;4.93;;;2.67;;
34767;SDS011;21755;43.608;1.236;2022-08-19T13:03:04;4.65;;;2.45;;
34767;SDS011;21755;43.608;1.236;2022-08-19T13:05:31;7.47;;;2.88;;
34767;SDS011;21755;43.608;1.236;2022-08-19T13:08:01;6.60;;;2.60;;
34767;SDS011;21755;43.608;1.236;2022-08-19T13:10:30;7.43;;;2.80;;
34767;SDS011;21755;43.608;1.236;2022-08-19T13:13:05;7.05;;;2.33;;
34767;SDS011;21755;43.608;1.236;2022-08-19T13:15:36;6.40;;;2.72;;
34767;SDS011;21755;43.608;1.236;2022-08-19T13:18:05;7.28;;;2.42;;
34767;SDS011;21755;43.608;1.236;2022-08-19T13:20:34;6.88;;;2.40;;
34767;SDS011;21755;43.608;1.236;2022-08-19T13:23:05;4.82;;;2.45;;
34767;SDS011;21755;43.608;1.236;2022-08-19T13:25:32;3.05;;;2.15;;
34767;SDS011;21755;43.608;1.236;2022-08-19T13:28:03;3.83;;;2.20;;
34767;SDS011;21755;43.608;1.236;2022-08-19T13:30:31;6.03;;;2.70;;
34767;SDS011;21755;43.608;1.236;2022-08-19T13:33:16;4.25;;;2.38;;
34767;SDS011;21755;43.608;1.236;2022-08-19T13:35:46;4.28;;;2.78;;
34767;SDS011;21755;43.608;1.236;2022-08-19T13:38:20;4.90;;;2.58;;
34767;SDS011;21755;43.608;1.236;2022-08-19T13:40:47;4.80;;;2.28;;
34767;SDS011;21755;43.608;1.236;2022-08-19T13:43:16;4.18;;;2.60;;
34767;SDS011;21755;43.608;1.236;2022-08-19T13:45:42;2.33;;;2.10;;
34767;SDS011;21755;43.608;1.236;2022-08-19T13:48:09;2.60;;;2.33;;
34767;SDS011;21755;43.608;1.236;2022-08-19T13:50:38;5.05;;;2.50;;
34767;SDS011;21755;43.608;1.236;2022-08-19T13:53:06;4.05;;;2.30;;
34767;SDS011;21755;43.608;1.236;2022-08-19T13:55:33;11.32;;;2.55;;
34767;SDS011;21755;43.608;1.236;2022-08-19T13:58:01;6.80;;;2.38;;
34767;SDS011;21755;43.608;1.236;2022-08-19T14:00:28;6.97;;;2.55;;
34767;SDS011;21755;43.608;1.236;2022-08-19T14:02:57;6.22;;;2.55;;
34767;SDS011;21755;43.608;1.236;2022-08-19T14:05:24;5.07;;;2.50;;
34767;SDS011;21755;43.608;1.236;2022-08-19T14:07:52;4.40;;;2.50;;
34767;SDS011;21755;43.608;1.236;2022-08-19T14:10:19;7.00;;;2.50;;
34767;SDS011;21755;43.608;1.236;2022-08-19T14:12:46;2.45;;;2.20;;
34767;SDS011;21755;43.608;1.236;2022-08-19T14:15:13;6.60;;;2.80;;
34767;SDS011;21755;43.608;1.236;2022-08-19T14:17:41;6.97;;;2.50;;
34767;SDS011;21755;43.608;1.236;2022-08-19T14:20:09;5.38;;;2.22;;
34767;SDS011;21755;43.608;1.236;2022-08-19T14:22:36;4.07;;;2.20;;
34767;SDS011;21755;43.608;1.236;2022-08-19T14:25:06;5.15;;;2.00;;
34767;SDS011;21755;43.608;1.236;2022-08-19T14:27:34;3.28;;;2.28;;
34767;SDS011;21755;43.608;1.236;2022-08-19T14:30:04;5.97;;;2.97;;
34767;SDS011;21755;43.608;1.236;2022-08-19T14:32:32;4.10;;;2.85;;
34767;SDS011;21755;43.608;1.236;2022-08-19T14:34:58;6.32;;;2.88;;
34767;SDS011;21755;43.608;1.236;2022-08-19T14:37:24;4.10;;;2.30;;
34767;SDS011;21755;43.608;1.236;2022-08-19T14:39:50;3.25;;;2.17;;
34767;SDS011;21755;43.608;1.236;2022-08-19T14:42:16;5.32;;;2.55;;
34767;SDS011;21755;43.608;1.236;2022-08-19T14:44:43;5.38;;;2.55;;
34767;SDS011;21755;43.608;1.236;2022-08-19T14:47:09;5.03;;;2.70;;
34767;SDS011;21755;43.608;1.236;2022-08-19T14:49:35;4.03;;;2.50;;
34767;SDS011;21755;43.608;1.236;2022-08-19T14:52:02;3.15;;;2.38;;
34767;SDS011;21755;43.608;1.236;2022-08-19T14:54:28;11.00;;;2.92;;
34767;SDS011;21755;43.608;1.236;2022-08-19T14:56:55;3.03;;;2.33;;
34767;SDS011;21755;43.608;1.236;2022-08-19T14:59:22;3.75;;;2.70;;
34767;SDS011;21755;43.608;1.236;2022-08-19T15:01:48;3.05;;;2.67;;
34767;SDS011;21755;43.608;1.236;2022-08-19T15:04:15;5.70;;;2.53;;